Time;durP1;ratioP1;P1;durP2;ratioP2;P2;SDS_P1;SDS_P2;PMS_P1;PMS_P2;Temp;Humidity;BMP_temperature;BMP_pressure;BME280_temperature;BME280_humidity;BME280_pressure;Samples;Min_cycle;Max_cycle;Signal;HPM_P1;HPM_P2
2022/10/04 00:01:50;;;;;;;28.65;13.98;;;;;;;8.39;100.00;102375.47;5269752;28;20072;-74
2022/10/04 00:04:40;;;;;;;23.60;15.10;;;;;;;8.35;100.00;102368.63;5272987;28;20095;-73
2022/10/04 00:07:11;;;;;;;23.50;13.05;;;;;;;8.30;100.00;102371.63;5281856;28;20445;-74
2022/10/04 00:10:02;;;;;;;28.40;13.02;;;;;;;8.24;100.00;102358.72;5262930;28;20059;-74
2022/10/04 00:12:39;;;;;;;20.45;11.50;;;;;;;8.19;100.00;102355.53;5269201;28;20099;-73
2022/10/04 00:15:25;;;;;;;36.13;14.80;;;;;;;8.14;100.00;102355.88;5280118;28;20431;-73
2022/10/04 00:18:10;;;;;;;105.78;20.13;;;;;;;8.10;100.00;102346.38;5270879;28;20031;-73
2022/10/04 00:20:52;;;;;;;24.48;14.32;;;;;;;8.08;100.00;102347.44;5276831;28;20028;-73
2022/10/04 00:23:22;;;;;;;24.42;13.68;;;;;;;8.06;100.00;102347.56;5256085;28;20134;-73
2022/10/04 00:25:58;;;;;;;20.52;12.10;;;;;;;8.03;100.00;102347.78;5269601;28;20111;-73
2022/10/04 00:28:35;;;;;;;25.23;15.13;;;;;;;8.04;100.00;102352.19;5264775;28;20032;-74
2022/10/04 00:31:09;;;;;;;22.60;13.18;;;;;;;8.03;100.00;102351.34;5281938;28;20020;-73
2022/10/04 00:33:51;;;;;;;24.98;12.52;;;;;;;7.99;100.00;102347.19;5268481;28;20118;-72
2022/10/04 00:36:24;;;;;;;52.95;15.32;;;;;;;7.88;100.00;102336.44;5265442;28;20431;-73
2022/10/04 00:39:04;;;;;;;68.45;15.68;;;;;;;7.79;100.00;102327.25;5264114;28;20020;-72
2022/10/04 00:41:46;;;;;;;83.53;15.90;;;;;;;7.70;100.00;102319.06;5251875;28;20020;-73
2022/10/04 00:44:27;;;;;;;46.67;13.80;;;;;;;7.63;100.00;102325.78;5262037;28;20426;-73
2022/10/04 00:47:01;;;;;;;22.27;12.93;;;;;;;7.58;100.00;102327.94;5276377;28;20104;-75
2022/10/04 00:49:40;;;;;;;24.90;13.05;;;;;;;7.57;100.00;102327.09;5281065;28;20035;-73
2022/10/04 00:52:25;;;;;;;26.48;14.15;;;;;;;7.64;100.00;102331.03;5269667;28;20412;-73
2022/10/04 00:55:02;;;;;;;26.00;16.23;;;;;;;7.65;100.00;102331.91;5267464;28;20070;-74
2022/10/04 00:57:44;;;;;;;25.85;15.30;;;;;;;7.66;100.00;102325.59;5278561;28;20027;-75
2022/10/04 01:00:18;;;;;;;32.20;15.25;;;;;;;7.62;100.00;102310.75;5268771;28;20051;-74
2022/10/04 01:02:51;;;;;;;59.28;16.00;;;;;;;7.53;100.00;102310.47;5266989;28;20390;-74
2022/10/04 01:05:29;;;;;;;190.70;20.02;;;;;;;7.44;100.00;102313.78;5275757;28;20027;-73
2022/10/04 01:08:07;;;;;;;257.35;21.23;;;;;;;7.33;100.00;102315.50;5272800;28;20028;-74
2022/10/04 01:10:51;;;;;;;29.20;13.95;;;;;;;7.21;100.00;102310.06;5267522;28;20035;-73
2022/10/04 01:13:28;;;;;;;26.67;13.85;;;;;;;7.18;100.00;102309.47;5288793;28;20031;-72
2022/10/04 01:16:15;;;;;;;29.00;14.05;;;;;;;7.20;100.00;102305.72;5272436;28;20153;-73
2022/10/04 01:18:46;;;;;;;26.35;13.80;;;;;;;7.22;100.00;102308.25;5267297;28;20024;-72
2022/10/04 01:21:19;;;;;;;24.90;15.00;;;;;;;7.18;100.00;102312.97;5268089;28;20023;-72
2022/10/04 01:23:56;;;;;;;23.38;13.48;;;;;;;7.14;100.00;102303.47;5267462;28;20505;-73
2022/10/04 01:26:31;;;;;;;25.85;14.43;;;;;;;7.13;100.00;102300.91;5275112;28;20068;-73
2022/10/04 01:29:06;;;;;;;28.90;14.32;;;;;;;7.11;100.00;102298.34;5278757;28;20038;-72
2022/10/04 01:31:41;;;;;;;23.52;13.18;;;;;;;7.11;100.00;102290.34;5277627;28;20078;-72
2022/10/04 01:34:24;;;;;;;115.45;15.10;;;;;;;7.04;100.00;102282.88;5266835;28;20497;-72
2022/10/04 01:36:59;;;;;;;56.80;13.43;;;;;;;7.00;100.00;102287.59;5267435;28;20032;-72
2022/10/04 01:39:29;;;;;;;21.50;11.77;;;;;;;6.98;100.00;102286.84;5258986;28;20044;-72
2022/10/04 01:42:10;;;;;;;62.45;15.57;;;;;;;6.96;100.00;102280.75;5254417;28;20086;-72
2022/10/04 01:44:52;;;;;;;49.03;14.13;;;;;;;6.92;100.00;102273.91;5287665;28;20457;-72
2022/10/04 01:47:39;;;;;;;18.13;10.35;;;;;;;6.90;100.00;102273.19;5282045;28;20031;-72
2022/10/04 01:50:16;;;;;;;19.27;11.73;;;;;;;6.99;100.00;102269.88;5266604;28;20032;-72
2022/10/04 01:52:54;;;;;;;21.92;13.80;;;;;;;6.99;100.00;102276.06;5267246;28;20381;-72
2022/10/04 01:55:30;;;;;;;20.52;12.63;;;;;;;6.97;100.00;102271.78;5266193;28;20024;-72
2022/10/04 01:58:09;;;;;;;20.73;11.23;;;;;;;6.92;100.00;102271.25;5280850;28;20500;-72
2022/10/04 02:00:56;;;;;;;18.92;12.73;;;;;;;6.89;100.00;102271.47;5278669;28;20470;-72
2022/10/04 02:03:42;;;;;;;16.95;11.65;;;;;;;6.87;100.00;102260.91;5258687;28;20024;-72
2022/10/04 02:06:14;;;;;;;339.67;26.92;;;;;;;6.85;100.00;102261.97;5280884;28;20076;-72
2022/10/04 02:08:56;;;;;;;150.48;19.52;;;;;;;6.79;100.00;102257.94;5277091;28;20055;-72
2022/10/04 02:11:30;;;;;;;19.45;11.48;;;;;;;6.74;100.00;102260.91;5266413;28;20565;-72
2022/10/04 02:14:00;;;;;;;20.42;11.45;;;;;;;6.79;100.00;102255.25;5279038;28;20019;-72
2022/10/04 02:16:37;;;;;;;18.38;10.77;;;;;;;6.79;100.00;102260.59;5279978;28;20031;-72
2022/10/04 02:19:10;;;;;;;25.75;11.73;;;;;;;6.78;100.00;102255.34;5265832;28;20028;-72
2022/10/04 02:21:43;;;;;;;22.23;12.48;;;;;;;6.70;100.00;102250.56;5276280;28;20023;-73
2022/10/04 02:24:14;;;;;;;22.88;13.45;;;;;;;6.65;100.00;102244.69;5283816;28;20081;-73
2022/10/04 02:26:51;;;;;;;23.27;11.43;;;;;;;6.59;100.00;102242.47;5271461;28;20027;-73
2022/10/04 02:29:21;;;;;;;16.25;10.40;;;;;;;6.57;100.00;102239.03;5263633;28;20024;-73
2022/10/04 02:34:41;;;;;;;15.75;10.32;;;;;;;6.49;100.00;102228.91;5270101;28;20028;-73
2022/10/04 02:37:14;;;;;;;16.02;9.90;;;;;;;6.47;100.00;102223.66;5279799;28;20026;-72
2022/10/04 02:39:51;;;;;;;19.10;11.10;;;;;;;6.46;100.00;102226.44;5255687;28;20378;-74
2022/10/04 02:42:34;;;;;;;21.90;12.18;;;;;;;6.47;100.00;102223.66;5263457;28;20027;-73
2022/10/04 02:45:23;;;;;;;17.38;10.65;;;;;;;6.45;100.00;102214.09;5279417;28;20536;-72
2022/10/04 02:48:27;;;;;;;139.57;15.27;;;;;;;6.37;100.00;102198.59;5287083;28;20035;-72
2022/10/04 02:51:14;;;;;;;142.98;16.08;;;;;;;6.27;100.00;102200.19;5284247;28;20164;-72
2022/10/04 02:53:49;;;;;;;275.15;22.88;;;;;;;6.20;100.00;102191.78;5281471;28;20019;-72
2022/10/04 02:56:21;;;;;;;113.68;14.23;;;;;;;6.16;100.00;102186.75;5278917;28;20035;-72
2022/10/04 02:58:53;;;;;;;12.18;8.68;;;;;;;6.12;100.00;102193.25;5286071;28;20031;-71
2022/10/04 03:01:28;;;;;;;17.48;10.35;;;;;;;6.12;100.00;102188.78;5283897;28;20031;-71
2022/10/04 03:03:58;;;;;;;18.67;10.50;;;;;;;6.15;100.00;102180.59;5267353;28;20452;-71
2022/10/04 03:06:31;;;;;;;22.67;11.88;;;;;;;6.19;100.00;102178.56;5285747;28;20070;-71
2022/10/04 03:09:04;;;;;;;48.20;12.55;;;;;;;6.15;100.00;102166.41;5274738;28;20024;-73
2022/10/04 03:11:39;;;;;;;28.88;10.88;;;;;;;6.07;100.00;102166.06;5265547;28;20035;-72
2022/10/04 03:14:14;;;;;;;33.75;12.32;;;;;;;6.02;100.00;102163.72;5277527;28;20028;-72
2022/10/04 03:16:49;;;;;;;30.65;13.57;;;;;;;6.00;100.00;102160.31;5286777;28;20743;-72
2022/10/04 03:19:23;;;;;;;21.02;12.90;;;;;;;6.00;100.00;102156.81;5270168;28;20039;-73
2022/10/04 03:21:59;;;;;;;16.45;10.45;;;;;;;5.99;100.00;102163.09;5275554;28;20358;-72
2022/10/04 03:24:38;;;;;;;16.15;9.85;;;;;;;5.96;100.00;102150.81;5267393;28;20474;-73
2022/10/04 03:27:15;;;;;;;15.30;8.88;;;;;;;5.89;100.00;102145.03;5266244;28;20059;-73
2022/10/04 03:29:46;;;;;;;19.52;8.48;;;;;;;5.85;100.00;102143.53;5252027;28;20035;-73
2022/10/04 03:32:18;;;;;;;16.45;9.95;;;;;;;5.82;100.00;102135.75;5278891;28;20027;-72
2022/10/04 03:34:54;;;;;;;13.73;9.35;;;;;;;5.83;100.00;102137.47;5264460;28;20024;-72
2022/10/04 03:37:28;;;;;;;20.40;11.38;;;;;;;5.82;100.00;102130.41;5265258;28;20085;-72
2022/10/04 03:40:00;;;;;;;31.63;13.20;;;;;;;5.84;100.00;102131.19;5252983;28;20044;-73
2022/10/04 03:42:35;;;;;;;23.10;12.90;;;;;;;5.85;100.00;102124.88;5263554;28;20024;-72
2022/10/04 03:45:10;;;;;;;40.83;9.83;;;;;;;5.84;100.00;102117.03;5278629;28;20024;-72
2022/10/04 03:47:43;;;;;;;;;;;;;;;5.79;100.00;102121.81;5286905;28;20797;-72
2022/10/04 03:50:33;;;;;;;18.75;10.75;;;;;;;5.79;100.00;102125.31;5272513;28;19920;-72
2022/10/04 03:53:11;;;;;;;21.10;10.68;;;;;;;5.81;100.00;102120.72;5273387;28;20435;-73
2022/10/04 03:55:43;;;;;;;26.77;11.35;;;;;;;5.88;100.00;102126.50;5259926;28;20026;-72
2022/10/04 03:58:16;;;;;;;21.13;11.80;;;;;;;5.91;100.00;102121.84;5271980;28;20073;-72
2022/10/04 04:01:04;;;;;;;22.08;11.45;;;;;;;5.88;100.00;102124.69;5286039;28;20016;-71
2022/10/04 04:04:05;;;;;;;15.93;10.07;;;;;;;5.90;100.00;102128.09;5258277;28;20052;-72
2022/10/04 04:06:58;;;;;;;26.08;11.80;;;;;;;5.95;100.00;102126.00;5268157;28;20062;-71
2022/10/04 04:09:37;;;;;;;26.77;12.95;;;;;;;5.99;100.00;102125.81;5271848;28;20035;-72
2022/10/04 04:12:23;;;;;;;19.40;11.75;;;;;;;6.01;100.00;102126.53;5277004;28;20081;-72
2022/10/04 04:14:54;;;;;;;23.20;12.05;;;;;;;5.95;100.00;102128.66;5270690;28;20042;-72
2022/10/04 04:17:25;;;;;;;21.30;11.32;;;;;;;5.88;100.00;102126.50;5273949;28;20024;-71
2022/10/04 04:19:59;;;;;;;28.27;12.18;;;;;;;5.82;100.00;102122.44;5283945;28;20114;-71
2022/10/04 04:22:30;;;;;;;28.05;11.43;;;;;;;5.79;100.00;102122.66;5271206;28;20020;-71
2022/10/04 04:25:07;;;;;;;20.98;11.48;;;;;;;5.76;100.00;102125.50;5273376;28;20028;-71
2022/10/04 04:27:39;;;;;;;20.48;10.80;;;;;;;5.74;100.00;102122.13;5271950;28;20023;-72
2022/10/04 04:30:15;;;;;;;19.88;12.10;;;;;;;5.76;100.00;102120.19;5274874;27;20395;-72
2022/10/04 04:32:53;;;;;;;29.05;13.80;;;;;;;5.78;100.00;102126.28;5265043;28;20070;-73
2022/10/04 04:35:30;;;;;;;24.70;13.90;;;;;;;5.74;100.00;102116.78;5264454;28;20428;-72
2022/10/04 04:38:18;;;;;;;25.40;12.32;;;;;;;5.70;100.00;102118.78;5286474;28;20046;-72
2022/10/04 04:40:54;;;;;;;20.02;10.48;;;;;;;5.66;100.00;102109.31;5266818;28;20026;-72
2022/10/04 04:43:26;;;;;;;26.00;11.98;;;;;;;5.64;100.00;102107.72;5268636;28;20024;-72
2022/10/04 04:45:57;;;;;;;40.03;16.00;;;;;;;5.67;100.00;102111.03;5268036;28;20382;-72
2022/10/04 04:48:28;;;;;;;28.17;13.30;;;;;;;5.72;100.00;102102.72;5283762;28;20026;-72
2022/10/04 04:50:58;;;;;;;340.10;22.17;;;;;;;5.70;100.00;102086.84;5280207;28;20529;-72
2022/10/04 04:53:29;;;;;;;184.18;14.07;;;;;;;5.64;100.00;102089.94;5270842;28;20034;-72
2022/10/04 04:56:02;;;;;;;329.23;20.45;;;;;;;5.56;100.00;102080.75;5288945;28;20487;-72
2022/10/04 04:58:41;;;;;;;64.38;13.13;;;;;;;5.57;100.00;102086.00;5270352;28;20028;-72
2022/10/04 05:01:28;;;;;;;28.95;13.70;;;;;;;5.64;100.00;102079.28;5268061;28;20020;-72
2022/10/04 05:04:03;;;;;;;36.55;14.10;;;;;;;5.84;100.00;102080.59;5265925;28;20081;-72
2022/10/04 05:06:36;;;;;;;31.77;14.80;;;;;;;5.98;100.00;102082.34;5275063;28;20027;-72
2022/10/04 05:09:34;;;;;;;38.35;14.40;;;;;;;6.08;100.00;102082.56;5276728;28;20024;-71
2022/10/04 05:12:17;;;;;;;34.70;15.50;;;;;;;6.18;100.00;102078.28;5265753;28;20375;-73
2022/10/04 05:14:51;;;;;;;34.05;16.05;;;;;;;6.28;100.00;102076.66;5272522;28;20015;-72
2022/10/04 05:17:32;;;;;;;39.08;16.33;;;;;;;6.40;100.00;102085.59;5287944;28;20031;-72
2022/10/04 05:20:03;;;;;;;39.85;16.40;;;;;;;6.47;100.00;102089.53;5255208;28;20096;-72
2022/10/04 05:22:34;;;;;;;46.97;16.33;;;;;;;6.54;100.00;102085.47;5281593;28;20491;-72
2022/10/04 05:25:14;;;;;;;48.63;16.85;;;;;;;6.58;100.00;102080.78;5276998;28;20123;-73
2022/10/04 05:27:44;;;;;;;44.85;17.77;;;;;;;6.54;100.00;102085.47;5263413;28;20504;-73
2022/10/04 05:30:50;;;;;;;41.38;15.63;;;;;;;6.56;100.00;102085.34;5267406;28;20020;-71
2022/10/04 05:33:38;;;;;;;40.42;15.77;;;;;;;6.60;100.00;102093.03;5244116;28;20049;-71
2022/10/04 05:36:08;;;;;;;36.33;14.95;;;;;;;6.63;100.00;102084.81;5270671;28;20066;-72
2022/10/04 05:39:01;;;;;;;26.08;12.57;;;;;;;6.59;100.00;102088.66;5266634;28;20489;-72
2022/10/04 05:41:52;;;;;;;33.42;13.25;;;;;;;6.54;100.00;102098.81;5250630;28;20082;-72
2022/10/04 05:44:28;;;;;;;27.00;11.38;;;;;;;6.46;100.00;102095.81;5261751;28;20024;-72
2022/10/04 05:47:00;;;;;;;21.83;10.30;;;;;;;6.34;100.00;102083.38;5271591;28;20043;-72
2022/10/04 05:49:42;;;;;;;28.92;11.80;;;;;;;6.26;100.00;102091.91;5265891;28;20028;-72
2022/10/04 05:52:14;;;;;;;24.05;10.50;;;;;;;6.22;100.00;102085.06;5280730;28;20055;-71
2022/10/04 05:54:45;;;;;;;27.98;11.55;;;;;;;6.17;100.00;102098.72;5279970;28;20035;-71
2022/10/04 05:57:36;;;;;;;22.17;9.90;;;;;;;6.09;100.00;102100.22;5288258;28;20019;-71
2022/10/04 06:00:44;;;;;;;24.08;10.27;;;;;;;6.04;100.00;102105.03;5272676;28;20031;-71
2022/10/04 06:03:29;;;;;;;29.73;13.05;;;;;;;6.09;100.00;102105.56;5272438;28;20022;-71
2022/10/04 06:06:26;;;;;;;32.40;12.50;;;;;;;6.11;100.00;102099.16;5287030;28;20027;-71
2022/10/04 06:09:00;;;;;;;25.33;12.82;;;;;;;6.07;100.00;102099.47;5278352;28;20052;-71
2022/10/04 06:12:00;;;;;;;27.92;12.90;;;;;;;6.02;100.00;102105.13;5268478;28;20034;-70
2022/10/04 06:14:53;;;;;;;29.85;11.82;;;;;;;6.11;100.00;102108.97;5272973;28;20169;-70
2022/10/04 06:17:24;;;;;;;22.45;11.00;;;;;;;6.12;100.00;102105.31;5274536;28;20023;-71
2022/10/04 06:20:08;;;;;;;24.40;10.02;;;;;;;6.08;100.00;102109.19;5266222;28;20503;-71
2022/10/04 06:22:44;;;;;;;22.30;9.85;;;;;;;6.05;100.00;102109.38;5261110;28;20110;-71
2022/10/04 06:25:33;;;;;;;15.95;9.15;;;;;;;6.05;100.00;102104.91;5243673;28;20082;-71
2022/10/04 06:28:04;;;;;;;21.95;10.40;;;;;;;6.06;100.00;102103.09;5250789;28;20024;-70
2022/10/04 06:31:06;;;;;;;28.73;10.63;;;;;;;6.10;100.00;102096.59;5279730;28;20077;-71
2022/10/04 06:33:45;;;;;;;20.77;10.32;;;;;;;6.23;100.00;102092.97;5270050;28;20039;-70
2022/10/04 06:36:32;;;;;;;16.00;7.85;;;;;;;6.68;100.00;102103.16;5272814;28;20497;-71
2022/10/04 06:39:51;;;;;;;17.75;8.38;;;;;;;7.00;100.00;102103.47;5277683;28;20054;-71
2022/10/04 06:42:22;;;;;;;13.85;8.27;;;;;;;7.13;100.00;102114.97;5266548;28;20106;-71
2022/10/04 06:45:20;;;;;;;16.95;7.60;;;;;;;7.18;100.00;102109.28;5273149;28;20463;-70
2022/10/04 06:47:59;;;;;;;15.82;7.22;;;;;;;7.28;100.00;102107.63;5278149;28;20027;-71
2022/10/04 06:50:32;;;;;;;12.48;6.63;;;;;;;7.23;100.00;102115.13;5267358;28;20038;-71
2022/10/04 06:53:25;;;;;;;12.48;6.97;;;;;;;7.46;100.00;102110.72;5275144;28;20027;-71
2022/10/04 06:56:04;;;;;;;17.35;6.82;;;;;;;7.93;100.00;102109.81;5255838;28;20156;-71
2022/10/04 06:58:59;;;;;;;9.65;5.70;;;;;;;8.34;100.00;102119.09;5269244;28;20028;-70
2022/10/04 07:01:35;;;;;;;37.85;6.32;;;;;;;8.69;100.00;102113.66;5274960;28;20106;-71
2022/10/04 07:04:23;;;;;;;117.13;8.27;;;;;;;8.93;100.00;102115.28;5264110;28;20020;-71
2022/10/04 07:10:29;;;;;;;9.18;4.80;;;;;;;8.90;100.00;102110.22;5242288;28;20025;-71
2022/10/04 07:13:03;;;;;;;9.88;5.00;;;;;;;9.51;100.00;102110.50;5273794;28;20081;-71
2022/10/04 07:16:00;;;;;;;18.70;6.68;;;;;;;10.38;100.00;102121.81;5270489;27;20417;-71
2022/10/04 07:18:41;;;;;;;14.80;7.03;;;;;;;11.23;100.00;102112.44;5272080;28;20473;-71
2022/10/04 07:21:16;;;;;;;13.65;6.32;;;;;;;11.78;100.00;102099.28;5269526;28;20065;-72
2022/10/04 07:23:46;;;;;;;16.38;5.93;;;;;;;12.22;100.00;102094.28;5271941;28;20470;-71
2022/10/04 07:26:51;;;;;;;13.23;6.18;;;;;;;12.43;100.00;102093.06;5266028;28;20027;-71
2022/10/04 07:29:29;;;;;;;11.93;7.50;;;;;;;12.72;100.00;102085.84;5271138;28;20038;-72
2022/10/04 07:32:20;;;;;;;11.38;5.40;;;;;;;13.07;100.00;102099.38;5278411;28;20031;-71
2022/10/04 07:34:50;;;;;;;10.90;5.60;;;;;;;13.50;100.00;102105.88;5270486;28;20027;-71
2022/10/04 07:37:23;;;;;;;13.55;6.10;;;;;;;13.74;100.00;102100.69;5266999;28;20023;-71
2022/10/04 07:40:01;;;;;;;15.43;7.07;;;;;;;13.81;100.00;102094.69;5270708;28;20020;-72
2022/10/04 07:42:35;;;;;;;13.38;5.75;;;;;;;13.90;100.00;102096.41;5269847;28;20061;-71
2022/10/04 07:45:17;;;;;;;10.77;4.72;;;;;;;14.11;100.00;102105.03;5268027;28;20028;-72
2022/10/04 07:47:47;;;;;;;9.95;5.57;;;;;;;14.13;100.00;102094.06;5267293;28;20023;-71
2022/10/04 07:50:18;;;;;;;10.65;6.32;;;;;;;14.17;100.00;102104.38;5261294;28;20031;-71
2022/10/04 07:52:56;;;;;;;16.17;6.13;;;;;;;14.60;100.00;102104.44;5276162;28;20026;-71
2022/10/04 07:55:36;;;;;;;12.10;4.90;;;;;;;14.82;100.00;102095.78;5268628;28;20020;-71
2022/10/04 07:58:30;;;;;;;13.23;5.05;;;;;;;14.58;100.00;102087.56;5272125;28;20028;-71
2022/10/04 08:01:09;;;;;;;13.02;5.22;;;;;;;14.89;100.00;102094.09;5276043;28;20524;-71
2022/10/04 08:04:18;;;;;;;13.70;5.47;;;;;;;15.23;100.00;102094.00;5263064;28;20385;-71
2022/10/04 08:06:51;;;;;;;11.80;5.13;;;;;;;15.49;100.00;102093.88;5273122;28;20036;-71
2022/10/04 08:09:34;;;;;;;10.73;5.40;;;;;;;15.62;100.00;102095.25;5269268;28;20485;-71
2022/10/04 08:12:20;;;;;;;14.25;5.90;;;;;;;15.07;100.00;102083.19;5272998;28;20080;-71
2022/10/04 08:15:14;;;;;;;13.45;5.30;;;;;;;14.85;100.00;102090.03;5279514;28;20020;-71
2022/10/04 08:18:03;;;;;;;9.57;5.03;;;;;;;15.07;100.00;102088.59;5275382;28;20023;-71
2022/10/04 08:20:39;;;;;;;10.45;4.72;;;;;;;15.23;100.00;102085.91;5276139;28;20021;-71
2022/10/04 08:23:18;;;;;;;9.23;4.78;;;;;;;15.36;100.00;102080.03;5276708;28;20024;-71
2022/10/04 08:26:11;;;;;;;13.15;4.45;;;;;;;15.38;100.00;102082.53;5274134;28;20366;-71
2022/10/04 08:32:15;;;;;;;19.13;5.30;;;;;;;15.50;100.00;102082.03;5280744;28;20028;-71
2022/10/04 08:35:18;;;;;;;10.13;5.00;;;;;;;15.54;100.00;102086.09;5270137;28;20024;-71
2022/10/04 08:38:26;;;;;;;12.63;4.63;;;;;;;16.06;100.00;102090.28;5274162;28;20076;-71
2022/10/04 08:41:10;;;;;;;13.15;5.07;;;;;;;15.91;100.00;102087.44;5274241;28;20499;-71
2022/10/04 08:44:12;;;;;;;15.85;4.65;;;;;;;15.93;100.00;102093.56;5278220;28;20016;-71
2022/10/04 08:46:51;;;;;;;12.38;4.78;;;;;;;16.59;100.00;102075.25;5267897;28;20488;-71
2022/10/04 08:49:34;;;;;;;8.30;4.25;;;;;;;16.56;100.00;102081.84;5265843;28;20020;-71
2022/10/04 08:52:36;;;;;;;12.20;4.95;;;;;;;16.70;100.00;102077.56;5271082;28;20119;-71
2022/10/04 08:55:21;;;;;;;12.63;4.65;;;;;;;16.54;100.00;102083.06;5283015;28;20066;-71
2022/10/04 08:58:15;;;;;;;12.70;5.22;;;;;;;16.78;100.00;102074.84;5265375;28;20020;-71
2022/10/04 09:01:18;;;;;;;9.43;4.85;;;;;;;17.00;100.00;102078.63;5253423;28;20028;-72
2022/10/04 09:04:25;;;;;;;12.25;4.75;;;;;;;17.33;100.00;102075.69;5260789;28;20024;-71
2022/10/04 09:07:33;;;;;;;15.95;4.90;;;;;;;17.49;100.00;102075.56;5266807;28;20436;-72
2022/10/04 09:10:41;;;;;;;10.93;4.75;;;;;;;17.03;100.00;102080.97;5265451;28;20053;-72
2022/10/04 09:13:22;;;;;;;12.25;5.05;;;;;;;17.63;100.00;102075.81;5284867;28;20039;-71
2022/10/04 09:15:56;;;;;;;10.93;4.65;;;;;;;17.27;100.00;102081.81;5286270;28;20058;-72
2022/10/04 09:19:01;;;;;;;11.00;4.93;;;;;;;17.18;100.00;102075.63;5252313;28;20051;-72
2022/10/04 09:22:09;;;;;;;8.25;4.55;;;;;;;17.46;100.00;102072.38;5279860;28;20078;-72
2022/10/04 09:25:04;;;;;;;8.10;4.35;;;;;;;17.24;100.00;102069.50;5271617;28;20027;-72
2022/10/04 09:28:02;;;;;;;10.95;5.15;;;;;;;17.06;100.00;102082.47;5270026;28;20119;-71
2022/10/04 09:30:58;;;;;;;12.25;4.95;;;;;;;17.23;100.00;102073.22;5279469;28;20070;-71
2022/10/04 09:33:43;;;;;;;12.98;4.80;;;;;;;17.15;100.00;102070.56;5275282;28;20024;-72
2022/10/04 09:36:51;;;;;;;14.25;5.57;;;;;;;17.38;100.00;102080.59;5261532;28;20043;-72
2022/10/04 09:39:35;;;;;;;9.93;4.50;;;;;;;17.22;100.00;102071.53;5258398;28;20027;-72
2022/10/04 09:42:08;;;;;;;14.25;5.32;;;;;;;17.69;100.00;102066.94;5253759;28;20073;-72
2022/10/04 09:44:57;;;;;;;11.60;4.38;;;;;;;17.81;100.00;102074.47;5275368;28;20031;-72
2022/10/04 09:47:40;;;;;;;11.63;4.25;;;;;;;17.92;100.00;102080.47;5278955;28;20032;-72
2022/10/04 09:50:38;;;;;;;15.73;4.70;;;;;;;17.72;100.00;102067.41;5264983;28;20050;-72
2022/10/04 09:53:43;;;;;;;12.57;4.72;;;;;;;17.85;100.00;102062.22;5264693;28;20558;-72
2022/10/04 09:56:51;;;;;;;11.65;4.68;;;;;;;17.89;100.00;102067.28;5277128;28;20035;-72
2022/10/04 09:59:36;;;;;;;11.32;4.10;;;;;;;17.76;100.00;102057.88;5274897;28;20024;-71
2022/10/04 10:02:40;;;;;;;9.95;3.97;;;;;;;17.89;100.00;102056.41;5274627;28;20031;-71
2022/10/04 10:05:15;;;;;;;9.90;4.15;;;;;;;17.92;100.00;102053.31;5266554;28;20036;-72
2022/10/04 10:08:10;;;;;;;13.43;4.20;;;;;;;17.86;100.00;102047.59;5264432;28;20485;-72
2022/10/04 10:14:03;;;;;;;13.20;4.82;;;;;;;17.38;100.00;102045.31;5274691;28;20038;-72
2022/10/04 10:16:52;;;;;;;15.18;4.88;;;;;;;17.57;100.00;102042.94;5265859;28;20031;-72
2022/10/04 10:19:53;;;;;;;10.50;4.60;;;;;;;17.53;100.00;102040.78;5264269;28;20477;-72
2022/10/04 10:22:46;;;;;;;12.30;5.57;;;;;;;17.60;100.00;102041.72;5276781;28;20036;-72
2022/10/04 10:25:16;;;;;;;13.90;4.85;;;;;;;17.60;100.00;102042.56;5273165;28;20020;-72
2022/10/04 10:28:06;;;;;;;14.18;5.03;;;;;;;17.53;100.00;102047.06;5257408;28;20683;-72
2022/10/04 10:31:08;;;;;;;11.45;4.30;;;;;;;17.81;100.00;102054.63;5277326;28;20023;-72
2022/10/04 10:34:10;;;;;;;11.93;4.45;;;;;;;17.62;100.00;102050.53;5264376;28;20448;-72
2022/10/04 10:36:43;;;;;;;10.15;4.00;;;;;;;17.95;100.00;102045.66;5265209;28;20042;-72
2022/10/04 10:39:22;;;;;;;15.88;4.45;;;;;;;17.94;100.00;102045.84;5265951;28;20036;-72
2022/10/04 10:42:16;;;;;;;13.65;4.90;;;;;;;17.88;100.00;102044.72;5264355;28;20040;-72
2022/10/04 10:45:25;;;;;;;11.40;4.38;;;;;;;17.82;100.00;102048.16;5286298;28;20062;-72
2022/10/04 10:48:00;;;;;;;17.33;5.72;;;;;;;17.51;100.00;102045.53;5256391;28;20080;-72
2022/10/04 10:50:57;;;;;;;11.48;4.45;;;;;;;17.64;100.00;102040.34;5277374;28;20029;-72
2022/10/04 10:53:33;;;;;;;9.77;3.75;;;;;;;17.72;100.00;102037.56;5282021;28;20114;-72
2022/10/04 10:56:12;;;;;;;15.13;4.50;;;;;;;17.98;100.00;102033.59;5286085;28;20024;-72
2022/10/04 10:59:07;;;;;;;11.73;4.45;;;;;;;18.02;100.00;102040.31;5273404;28;20850;-72
2022/10/04 11:01:37;;;;;;;16.52;8.68;;;;;;;18.25;100.00;102037.53;5283348;28;20362;-72
2022/10/04 11:04:39;;;;;;;11.73;4.28;;;;;;;18.39;100.00;102033.94;5267491;28;20363;-72
2022/10/04 11:07:49;;;;;;;11.30;3.97;;;;;;;18.31;100.00;102024.00;5253376;28;20027;-72
2022/10/04 11:10:53;;;;;;;18.08;4.30;;;;;;;18.40;100.00;102032.91;5264681;28;20042;-72
2022/10/04 11:13:46;;;;;;;12.07;3.72;;;;;;;18.40;100.00;102022.06;5279281;28;20020;-72
2022/10/04 11:16:36;;;;;;;21.58;15.05;;;;;;;18.70;100.00;102014.72;5264683;28;20028;-72
2022/10/04 11:19:45;;;;;;;8.90;3.80;;;;;;;18.71;100.00;102013.66;5265048;28;20020;-72
2022/10/04 11:22:48;;;;;;;8.73;3.55;;;;;;;18.83;100.00;102005.88;5264533;28;20042;-72
2022/10/04 11:25:56;;;;;;;8.07;3.70;;;;;;;18.82;100.00;101991.41;5253414;28;20436;-72
2022/10/04 11:28:35;;;;;;;9.60;3.72;;;;;;;18.55;100.00;102003.00;5258435;28;20097;-72
2022/10/04 11:31:24;;;;;;;9.52;3.67;;;;;;;18.29;100.00;101998.94;5264706;28;20028;-72
2022/10/04 11:34:23;;;;;;;7.20;3.30;;;;;;;18.60;100.00;102000.56;5265519;28;20379;-72
2022/10/04 11:37:15;;;;;;;7.80;3.67;;;;;;;18.64;100.00;101993.72;5278407;28;20043;-72
2022/10/04 11:39:58;;;;;;;10.48;3.20;;;;;;;18.88;100.00;101993.38;5243762;28;20089;-72
2022/10/04 11:42:34;;;;;;;7.97;3.40;;;;;;;19.09;100.00;101989.81;5263570;28;20016;-73
2022/10/04 11:45:37;;;;;;;9.25;3.92;;;;;;;19.08;100.00;101979.97;5264092;28;20097;-72
2022/10/04 11:48:47;;;;;;;11.90;3.53;;;;;;;18.72;100.00;101982.72;5266092;28;20090;-72
2022/10/04 11:51:36;;;;;;;8.75;3.55;;;;;;;18.78;100.00;101978.44;5280625;28;20023;-72
2022/10/04 11:54:51;;;;;;;6.40;3.33;;;;;;;18.59;100.00;101993.44;5263678;28;20083;-72
2022/10/04 11:57:37;;;;;;;5.57;3.00;;;;;;;18.53;100.00;101996.94;5245756;28;20032;-72
2022/10/04 12:00:19;;;;;;;12.15;3.17;;;;;;;18.77;100.00;101984.88;5232050;28;20043;-72
2022/10/04 12:03:41;;;;;;;8.57;3.05;;;;;;;18.67;100.00;101996.03;5246845;28;20498;-73
2022/10/04 12:06:46;;;;;;;9.18;4.28;;;;;;;18.78;100.00;102006.44;5241810;28;20035;-72
2022/10/04 12:09:19;;;;;;;8.35;3.20;;;;;;;18.85;100.00;101988.31;5252620;28;20135;-73
2022/10/04 12:15:38;;;;;;;8.05;3.30;;;;;;;18.81;100.00;101992.44;5282362;28;20036;-72
2022/10/04 12:18:31;;;;;;;7.47;2.78;;;;;;;18.88;100.00;101990.66;5287682;28;20548;-72
2022/10/04 12:21:20;;;;;;;9.25;2.80;;;;;;;18.85;100.00;101982.03;5275756;28;20035;-73
2022/10/04 12:24:22;;;;;;;8.02;2.95;;;;;;;19.15;100.00;101982.75;5277475;27;20020;-72
2022/10/04 12:26:55;;;;;;;8.43;3.20;;;;;;;18.90;100.00;101985.03;5260984;28;20102;-72
2022/10/04 12:29:39;;;;;;;9.35;3.33;;;;;;;18.92;100.00;101977.50;5283461;28;20028;-72
2022/10/04 12:32:30;;;;;;;5.10;3.07;;;;;;;19.03;100.00;101962.56;5276031;27;20032;-73
2022/10/04 12:35:12;;;;;;;6.15;3.05;;;;;;;19.10;100.00;101974.34;5268235;28;20020;-72
2022/10/04 12:38:06;;;;;;;7.57;2.90;;;;;;;19.09;100.00;101973.50;5267707;28;20028;-72
2022/10/04 12:40:55;;;;;;;12.02;3.22;;;;;;;19.22;100.00;101961.03;5254583;28;20028;-73
2022/10/04 12:43:59;;;;;;;10.52;3.22;;;;;;;19.18;100.00;101949.72;5281268;28;20031;-73